Lanzhou, China
Current Conditions -  °F | °C
As of 3:00 PM on Thursday 18 Dec 2014 (Local Time) from ZLLL Reporting Station
Clear Clear  
Wind Chill: 30°   Ceiling: Unl
Heat Index: 34°   Visibility: 6mi
Dew Point: -4°   Wind: 4mph
Humidity: 20%   Direction: 170°S
Pressure: 30.21"   Gusts: NA
Location:  36.05°N, 103.68°E
Report Text: ZLLL 180700Z 17002MPS 100V240 CAVOK 01/M20 Q1023 NOSIG
Loading
Personal Weather Stations






























Interactive Weather Map New forecast layout! Learn more

10-Day Weather Forecast

Advertisements
Track Severe Weather on mobile